createdAt,value
2022-10-16T00:04:29.933Z,1010.6
2022-10-16T00:10:10.206Z,1010.4
2022-10-16T00:15:50.422Z,1010.5
2022-10-16T00:21:30.717Z,1010.4
2022-10-16T00:27:11.179Z,1010.4
2022-10-16T00:32:51.498Z,1010.4
2022-10-16T00:38:31.955Z,1010.2
2022-10-16T00:44:12.299Z,1010.4
2022-10-16T00:49:52.596Z,1010.3
2022-10-16T00:55:32.926Z,1010.5
2022-10-16T01:01:14.251Z,1010.5
2022-10-16T01:06:55.682Z,1010.7
2022-10-16T01:12:43.101Z,1010.5
2022-10-16T01:18:28.965Z,1010.4
2022-10-16T01:24:09.345Z,1010.6
2022-10-16T01:29:49.739Z,1010.6
2022-10-16T01:35:29.965Z,1010.7
2022-10-16T01:41:10.268Z,1010.8
2022-10-16T01:46:50.798Z,1010.9
2022-10-16T01:52:31.307Z,1011
2022-10-16T01:58:14.122Z,1011.1
2022-10-16T02:03:54.384Z,1285.8
2022-10-16T02:09:34.756Z,1011.7
2022-10-16T02:15:14.868Z,1011.8
2022-10-16T02:20:55.414Z,1012
2022-10-16T02:26:35.820Z,1012.1
2022-10-16T02:32:15.856Z,0
2022-10-16T02:37:58.125Z,0
2022-10-16T02:43:39.399Z,1011.3
2022-10-16T02:49:22.645Z,1011.2
2022-10-16T02:55:03.052Z,1011.1
2022-10-16T03:00:43.524Z,1010.9
2022-10-16T03:06:24.472Z,1010.9
2022-10-16T03:12:06.848Z,1010.9
2022-10-16T03:17:46.986Z,1010.9
2022-10-16T03:29:11.608Z,1010.8
2022-10-16T03:34:51.885Z,1010.9
2022-10-16T03:40:31.996Z,1011.1
2022-10-16T03:46:12.240Z,1011.1
2022-10-16T03:51:52.507Z,1011.1
2022-10-16T03:57:32.840Z,1011.1
2022-10-16T04:03:12.999Z,1011
2022-10-16T04:08:53.052Z,1011
2022-10-16T04:14:33.133Z,1011
2022-10-16T04:20:13.507Z,1011
2022-10-16T04:25:53.791Z,1010.9
2022-10-16T04:31:33.870Z,1011
2022-10-16T04:37:13.968Z,1011.4
2022-10-16T04:42:54.102Z,1011.3
2022-10-16T04:48:34.450Z,1011.3
2022-10-16T04:54:14.401Z,1011.3
2022-10-16T04:59:54.530Z,1011.4
2022-10-16T05:05:34.701Z,1011.5
2022-10-16T05:11:15.063Z,1011.6
2022-10-16T05:16:55.371Z,1011.5
2022-10-16T05:22:35.712Z,1011.7
2022-10-16T05:28:16.070Z,1011.7
2022-10-16T05:33:56.275Z,1011.7
2022-10-16T05:39:36.386Z,0
2022-10-16T05:45:16.462Z,0
2022-10-16T05:50:56.895Z,0
2022-10-16T05:56:37.282Z,0
2022-10-16T06:02:18.353Z,1012.1
2022-10-16T06:07:58.931Z,1012.4
2022-10-16T06:13:39.087Z,1012.5
2022-10-16T06:19:19.208Z,1012.6
2022-10-16T06:24:59.575Z,1012.9
2022-10-16T06:30:39.958Z,1013
2022-10-16T06:36:20.941Z,1013
2022-10-16T06:42:01.438Z,1013.1
2022-10-16T06:47:41.778Z,1013.2
2022-10-16T06:53:21.935Z,1013.1
2022-10-16T06:59:01.806Z,0
2022-10-16T07:04:42.259Z,1013.3
2022-10-16T07:10:22.362Z,1013.3
2022-10-16T07:16:05.902Z,1013.3
2022-10-16T07:21:48.767Z,1013.3
2022-10-16T07:27:29.234Z,1285.8
2022-10-16T07:33:09.977Z,1014.6
2022-10-16T07:39:00.591Z,1014.8
2022-10-16T07:44:41.832Z,1022.1
2022-10-16T07:50:22.640Z,1020.5
2022-10-16T07:56:03.742Z,1018.7
2022-10-16T08:01:44.565Z,1018.1
2022-10-16T08:07:27.079Z,1017.7
2022-10-16T08:13:09.187Z,1017.5
2022-10-16T08:18:49.543Z,1017.6
2022-10-16T08:24:30.101Z,1017.6
2022-10-16T08:30:10.374Z,1017.3
2022-10-16T08:35:50.542Z,1017.4
2022-10-16T08:41:30.643Z,1017.4
2022-10-16T08:47:10.853Z,1017.4
2022-10-16T08:52:51.203Z,1017.5
2022-10-16T08:58:31.916Z,1017.1
2022-10-16T09:04:12.030Z,1016.6
2022-10-16T09:09:52.307Z,1016.5
2022-10-16T09:15:32.589Z,1016.5
2022-10-16T09:21:12.946Z,1016.5
2022-10-16T09:26:53.030Z,1016.4
2022-10-16T09:32:33.666Z,1016.2
2022-10-16T09:38:13.609Z,0
2022-10-16T09:43:53.373Z,0
2022-10-16T09:49:33.883Z,1016.1
2022-10-16T09:55:16.054Z,0
2022-10-16T10:00:55.564Z,0
2022-10-16T10:06:36.465Z,0
2022-10-16T10:12:26.010Z,0
2022-10-16T10:18:08.216Z,0
2022-10-16T10:23:48.039Z,1016.1
2022-10-16T10:29:28.039Z,0
2022-10-16T10:35:15.904Z,0
2022-10-16T10:40:56.078Z,0
2022-10-16T10:46:35.357Z,0
2022-10-16T10:52:16.114Z,0
2022-10-16T11:03:01.461Z,0
2022-10-16T11:08:41.447Z,0
2022-10-16T11:14:21.980Z,0
2022-10-16T11:20:20.797Z,0
2022-10-16T11:26:03.970Z,0
2022-10-16T11:31:44.874Z,1016.3
2022-10-16T11:37:26.563Z,1016.2
2022-10-16T11:48:50.748Z,0
2022-10-16T11:54:31.292Z,1016.3
2022-10-16T12:00:14.758Z,1016.2
2022-10-16T12:05:55.006Z,0
2022-10-16T12:11:34.865Z,0
2022-10-16T12:17:14.790Z,0
2022-10-16T12:22:54.912Z,0
2022-10-16T12:28:35.252Z,0
2022-10-16T12:34:16.231Z,0
2022-10-16T12:39:56.315Z,1016.1
2022-10-16T12:45:36.918Z,1016.1
2022-10-16T12:51:20.303Z,1015.9
2022-10-16T12:57:00.681Z,0
2022-10-16T13:02:40.555Z,1016.1
2022-10-16T13:08:21.613Z,1016
2022-10-16T13:14:02.350Z,0
2022-10-16T13:20:15.700Z,1016
2022-10-16T13:25:59.809Z,1016
2022-10-16T13:31:40.051Z,1016.1
2022-10-16T13:37:21.301Z,1015.9
2022-10-16T13:43:04.452Z,1016
2022-10-16T13:48:45.227Z,1016.1
2022-10-16T13:54:26.150Z,1016.1
2022-10-16T14:05:09.148Z,1015.9
2022-10-16T14:10:49.469Z,1016.1
2022-10-16T14:16:29.785Z,1016.1
2022-10-16T14:22:10.007Z,1016.3
2022-10-16T14:27:51.159Z,1016.4
2022-10-16T14:33:31.920Z,1016.3
2022-10-16T14:39:15.184Z,1016.2
2022-10-16T14:44:55.430Z,1016.4
2022-10-16T14:50:35.556Z,1016.4
2022-10-16T14:56:16.191Z,1016.6
2022-10-16T15:01:56.759Z,1016.6
2022-10-16T15:07:37.195Z,1016.6
2022-10-16T15:13:17.543Z,1016.6
2022-10-16T15:18:58.329Z,1016.8
2022-10-16T15:24:39.779Z,1016.9
2022-10-16T15:30:20.931Z,1017
2022-10-16T15:36:01.348Z,0
2022-10-16T15:52:24.002Z,1017.3
2022-10-16T16:03:08.203Z,1017.4
2022-10-16T16:08:49.289Z,1017.4
2022-10-16T16:14:31.081Z,1017.4
2022-10-16T16:20:12.096Z,1017.7
2022-10-16T16:25:53.210Z,1017.7
2022-10-16T16:31:33.712Z,1017.7
2022-10-16T16:37:14.168Z,1018.4
2022-10-16T16:42:54.134Z,0
2022-10-16T16:48:34.657Z,1019.5
2022-10-16T16:54:15.208Z,1019.7
2022-10-16T16:59:55.715Z,1020
2022-10-16T17:05:36.091Z,1022.1
2022-10-16T17:11:16.569Z,1022.2
2022-10-16T17:16:57.096Z,1022.4
2022-10-16T17:22:37.830Z,1022.7
2022-10-16T17:28:25.083Z,0
2022-10-16T17:34:05.958Z,0
2022-10-16T17:39:55.090Z,0
2022-10-16T17:45:40.585Z,0
2022-10-16T17:51:25.723Z,0
2022-10-16T17:57:06.096Z,0
2022-10-16T18:02:54.540Z,0
2022-10-16T18:08:35.655Z,0
2022-10-16T18:14:15.636Z,0
2022-10-16T18:20:02.151Z,0
2022-10-16T18:25:42.508Z,0
2022-10-16T18:31:25.573Z,0
2022-10-16T18:37:14.421Z,0
2022-10-16T18:42:57.496Z,0
2022-10-16T18:48:48.604Z,0
2022-10-16T18:54:28.744Z,0
2022-10-16T19:00:08.700Z,0
2022-10-16T19:05:56.619Z,0
2022-10-16T19:11:45.882Z,0
2022-10-16T19:17:28.823Z,0
2022-10-16T19:23:14.591Z,0
2022-10-16T19:28:56.932Z,0
2022-10-16T19:34:37.826Z,1024.8
2022-10-16T19:40:21.247Z,1025
2022-10-16T19:46:04.802Z,1025.1
2022-10-16T19:51:49.664Z,1025
2022-10-16T19:57:38.324Z,1025
2022-10-16T20:03:18.562Z,1024.9
2022-10-16T20:08:59.382Z,1024.9
2022-10-16T20:14:47.368Z,0
2022-10-16T20:20:27.373Z,0
2022-10-16T20:26:07.382Z,0
2022-10-16T20:31:47.918Z,1285.8
2022-10-16T20:37:29.088Z,0
2022-10-16T20:43:10.802Z,0
2022-10-16T20:48:53.829Z,0
2022-10-16T20:54:35.227Z,0
2022-10-16T21:00:15.188Z,0
2022-10-16T21:06:00.376Z,0
2022-10-16T21:11:40.531Z,0
2022-10-16T21:17:22.821Z,0
2022-10-16T21:23:02.822Z,0
2022-10-16T21:28:45.981Z,0
2022-10-16T21:34:29.934Z,0
2022-10-16T21:40:09.816Z,0
2022-10-16T21:45:49.770Z,0
2022-10-16T21:51:30.783Z,0
2022-10-16T21:57:10.678Z,0
2022-10-16T22:02:51.720Z,0
2022-10-16T22:08:32.625Z,0
2022-10-16T22:14:13.768Z,0
2022-10-16T22:19:53.943Z,0
2022-10-16T22:25:34.081Z,0
2022-10-16T22:31:14.834Z,0
2022-10-16T22:36:55.007Z,0
2022-10-16T22:42:35.591Z,0
2022-10-16T22:48:16.346Z,0
2022-10-16T22:53:56.578Z,0
2022-10-16T22:59:36.778Z,0
2022-10-16T23:05:16.887Z,0
2022-10-16T23:10:58.047Z,0
2022-10-16T23:16:38.260Z,0
2022-10-16T23:22:21.846Z,1016.6
2022-10-16T23:28:01.899Z,0
2022-10-16T23:33:42.570Z,0
2022-10-16T23:39:23.103Z,0
2022-10-16T23:45:03.192Z,0
2022-10-16T23:50:43.293Z,0
2022-10-16T23:56:24.556Z,0
